Time;durP1;ratioP1;P1;durP2;ratioP2;P2;SDS_P1;SDS_P2;PMS_P1;PMS_P2;Temp;Humidity;BMP_temperature;BMP_pressure;BME280_temperature;BME280_humidity;BME280_pressure;Samples;Min_cycle;Max_cycle;Signal;HPM_P1;HPM_P2
2021/01/03 00:00:20;;;;;;;39.20;23.97;;;4.90;99.90;;;;;;5036240;28;20506;-72
2021/01/03 00:02:47;;;;;;;36.77;23.60;;;5.00;99.90;;;;;;5048731;28;20829;-72
2021/01/03 00:05:15;;;;;;;39.17;22.07;;;5.00;99.90;;;;;;5044604;28;20439;-72
2021/01/03 00:07:41;;;;;;;37.23;22.90;;;5.00;99.90;;;;;;5048131;28;20413;-72
2021/01/03 00:10:08;;;;;;;33.23;21.10;;;5.10;99.90;;;;;;5050394;28;20448;-72
2021/01/03 00:12:34;;;;;;;33.83;22.50;;;5.10;99.90;;;;;;5057114;28;20782;-72
2021/01/03 00:15:00;;;;;;;38.40;24.93;;;5.20;99.90;;;;;;5037658;28;20430;-72
2021/01/03 00:17:25;;;;;;;31.10;21.07;;;5.10;99.90;;;;;;5044321;28;20447;-72
2021/01/03 00:19:51;;;;;;;32.07;21.40;;;5.10;99.90;;;;;;5048220;28;20648;-72
2021/01/03 00:22:16;;;;;;;31.83;21.27;;;5.00;99.90;;;;;;5054423;28;20270;-72
2021/01/03 00:24:42;;;;;;;31.90;21.10;;;5.00;99.90;;;;;;5040490;28;20190;-71
2021/01/03 00:27:08;;;;;;;32.80;21.50;;;5.00;99.90;;;;;;5052638;28;20693;-72
2021/01/03 00:29:33;;;;;;;31.47;19.87;;;5.00;99.90;;;;;;5039325;28;20213;-71
2021/01/03 00:32:00;;;;;;;30.30;20.93;;;5.10;99.90;;;;;;5038222;28;20427;-71
2021/01/03 00:34:26;;;;;;;30.67;19.47;;;5.00;99.90;;;;;;5049158;28;20213;-72
2021/01/03 00:36:52;;;;;;;25.67;18.30;;;5.00;99.90;;;;;;5049132;28;20437;-71
2021/01/03 00:39:17;;;;;;;31.10;19.70;;;5.00;99.90;;;;;;5035386;28;20206;-72
2021/01/03 00:41:47;;;;;;;32.33;21.07;;;5.10;99.90;;;;;;5044356;28;20178;-72
2021/01/03 00:44:12;;;;;;;27.53;19.57;;;5.10;99.90;;;;;;5049746;28;20530;-72
2021/01/03 00:46:38;;;;;;;31.97;20.33;;;5.10;99.90;;;;;;5035145;28;20446;-72
2021/01/03 00:49:04;;;;;;;32.23;22.03;;;5.10;99.90;;;;;;5045722;28;20186;-72
2021/01/03 00:51:29;;;;;;;33.43;21.80;;;5.00;99.90;;;;;;5054710;28;20256;-72
2021/01/03 00:53:55;;;;;;;36.23;22.73;;;5.00;99.90;;;;;;5045331;28;20513;-71
2021/01/03 00:56:23;;;;;;;32.97;22.20;;;4.90;99.90;;;;;;5049267;28;20190;-71
2021/01/03 00:58:48;;;;;;;33.20;22.00;;;4.90;99.90;;;;;;5042738;28;20216;-72
2021/01/03 01:01:14;;;;;;;34.07;23.47;;;4.90;99.90;;;;;;5043100;28;20417;-72
2021/01/03 01:03:39;;;;;;;35.57;23.70;;;5.00;99.90;;;;;;5034816;28;20181;-72
2021/01/03 01:06:05;;;;;;;38.93;23.13;;;5.00;99.90;;;;;;5042782;28;20202;-71
2021/01/03 01:08:31;;;;;;;42.30;25.23;;;5.00;99.90;;;;;;5042592;28;20630;-72
2021/01/03 01:10:56;;;;;;;34.90;21.60;;;4.90;99.90;;;;;;5050551;28;20167;-72
2021/01/03 01:13:22;;;;;;;38.80;24.73;;;5.00;99.90;;;;;;5041822;28;20600;-72
2021/01/03 01:15:47;;;;;;;33.30;23.07;;;4.80;99.90;;;;;;5034747;28;20736;-72
2021/01/03 01:18:13;;;;;;;39.23;24.30;;;4.60;99.90;;;;;;5051079;28;20289;-72
2021/01/03 01:20:39;;;;;;;33.37;22.27;;;4.50;99.90;;;;;;5053734;28;20164;-72
2021/01/03 01:23:04;;;;;;;31.77;20.80;;;4.40;99.90;;;;;;5045676;28;20429;-72
2021/01/03 01:25:32;;;;;;;35.70;23.43;;;4.50;99.90;;;;;;5035011;28;20208;-72
2021/01/03 01:27:59;;;;;;;35.53;23.27;;;4.50;99.90;;;;;;5039085;28;20648;-71
2021/01/03 01:30:26;;;;;;;40.30;22.27;;;4.50;99.90;;;;;;5034951;28;20419;-72
2021/01/03 01:32:52;;;;;;;35.70;21.80;;;4.50;99.90;;;;;;5040766;28;20435;-72
2021/01/03 01:35:21;;;;;;;36.13;21.97;;;4.40;99.90;;;;;;5049422;28;20428;-72
2021/01/03 01:37:48;;;;;;;30.93;20.40;;;4.40;99.90;;;;;;5049152;28;20196;-72
2021/01/03 01:40:17;;;;;;;31.37;20.23;;;4.30;99.90;;;;;;5041955;28;20422;-71
2021/01/03 01:42:44;;;;;;;29.50;20.97;;;4.30;99.90;;;;;;5052908;28;20837;-72
2021/01/03 01:45:11;;;;;;;32.20;20.43;;;4.20;99.90;;;;;;5051446;28;20758;-71
2021/01/03 01:47:40;;;;;;;33.93;20.00;;;4.30;99.90;;;;;;5051005;28;20447;-72
2021/01/03 01:50:10;;;;;;;29.43;18.73;;;4.40;99.90;;;;;;5046267;28;20432;-72
2021/01/03 01:52:47;;;;;;;29.97;19.60;;;4.50;99.90;;;;;;5042918;28;21025;-72
2021/01/03 01:55:29;;;;;;;31.70;19.47;;;4.60;99.90;;;;;;5038787;28;20872;-71
2021/01/03 01:58:42;;;;;;;26.50;17.73;;;4.60;99.90;;;;;;5042041;28;20450;-71
2021/01/03 02:01:13;;;;;;;29.63;18.97;;;4.60;99.90;;;;;;4982487;28;20557;-72
2021/01/03 02:03:57;;;;;;;28.47;19.27;;;4.70;99.90;;;;;;4991709;28;20507;-72
2021/01/03 02:06:44;;;;;;;29.03;18.63;;;4.60;99.90;;;;;;4991816;28;20563;-71
2021/01/03 02:09:18;;;;;;;26.70;18.40;;;4.70;99.90;;;;;;4985254;28;20434;-72
2021/01/03 02:11:43;;;;;;;25.97;17.90;;;4.70;99.90;;;;;;4991910;28;20442;-72
2021/01/03 02:14:11;;;;;;;33.93;19.13;;;4.60;99.90;;;;;;4991357;28;20440;-72
2021/01/03 02:16:37;;;;;;;28.53;18.10;;;4.60;99.90;;;;;;4992093;28;20758;-72
2021/01/03 02:19:10;;;;;;;30.33;19.43;;;4.60;99.90;;;;;;4991565;28;20464;-71
2021/01/03 02:22:10;;;;;;;25.50;18.60;;;4.50;99.90;;;;;;4991838;28;20470;-72
2021/01/03 02:25:01;;;;;;;31.00;21.07;;;4.50;99.90;;;;;;4991535;28;20772;-71
2021/01/03 02:27:36;;;;;;;27.70;18.03;;;4.60;99.90;;;;;;4988730;28;20421;-72
2021/01/03 02:30:04;;;;;;;26.97;19.27;;;4.60;99.90;;;;;;4991740;28;20489;-72
2021/01/03 02:32:30;;;;;;;26.57;18.97;;;4.50;99.90;;;;;;4991875;28;20470;-72
2021/01/03 02:34:56;;;;;;;30.83;17.90;;;4.50;99.90;;;;;;4991265;28;20437;-72
2021/01/03 02:37:31;;;;;;;26.00;17.60;;;4.50;99.90;;;;;;5009684;28;20443;-71
2021/01/03 02:40:06;;;;;;;24.40;16.03;;;4.50;99.90;;;;;;5048942;28;20945;-72
2021/01/03 02:42:34;;;;;;;23.73;17.27;;;4.60;99.90;;;;;;5048975;28;20431;-72
2021/01/03 02:45:03;;;;;;;31.00;18.53;;;4.60;99.90;;;;;;5056064;28;20426;-71
2021/01/03 02:47:31;;;;;;;26.43;17.13;;;4.50;99.90;;;;;;5055476;28;20466;-72
2021/01/03 02:49:57;;;;;;;27.77;17.47;;;4.50;99.90;;;;;;5050183;28;20428;-72
2021/01/03 02:52:32;;;;;;;25.10;17.50;;;4.50;99.90;;;;;;5055231;28;20788;-72
2021/01/03 02:54:58;;;;;;;32.67;18.20;;;4.50;99.90;;;;;;5049719;28;20189;-71
2021/01/03 02:57:23;;;;;;;26.90;17.77;;;4.60;99.90;;;;;;5036621;28;20442;-71
2021/01/03 02:59:49;;;;;;;27.10;17.37;;;4.60;99.90;;;;;;5036629;28;20199;-72
2021/01/03 03:02:15;;;;;;;24.53;17.33;;;4.60;99.90;;;;;;5052119;28;20193;-72
2021/01/03 03:04:40;;;;;;;26.90;18.70;;;4.50;99.90;;;;;;5048213;28;20172;-71
2021/01/03 03:07:06;;;;;;;27.70;18.63;;;4.50;99.90;;;;;;5049139;28;20200;-72
2021/01/03 03:09:31;;;;;;;21.93;15.77;;;4.50;99.90;;;;;;5051306;28;20181;-71
2021/01/03 03:11:57;;;;;;;24.70;15.87;;;4.50;99.90;;;;;;5058941;28;20255;-72
2021/01/03 03:14:22;;;;;;;25.10;17.50;;;4.60;99.90;;;;;;5039732;28;20196;-71
2021/01/03 03:16:53;;;;;;;26.50;17.43;;;4.50;99.90;;;;;;5044733;28;20241;-72
2021/01/03 03:19:19;;;;;;;26.10;18.30;;;4.50;99.90;;;;;;5037330;28;20600;-71
2021/01/03 03:21:46;;;;;;;30.27;17.53;;;4.40;99.90;;;;;;5047086;28;20428;-72
2021/01/03 03:24:11;;;;;;;24.87;18.10;;;4.50;99.90;;;;;;5040793;28;20261;-71
2021/01/03 03:26:37;;;;;;;25.27;17.13;;;4.60;99.90;;;;;;5037269;28;20549;-71
2021/01/03 03:29:02;;;;;;;21.23;16.17;;;4.60;99.90;;;;;;5047126;28;20555;-72
2021/01/03 03:31:29;;;;;;;25.70;17.17;;;4.70;99.90;;;;;;5047640;28;20650;-71
2021/01/03 03:33:55;;;;;;;24.17;16.83;;;4.70;99.90;;;;;;5044080;28;20545;-71
2021/01/03 03:36:20;;;;;;;23.23;16.93;;;4.70;99.90;;;;;;5044196;28;20442;-72
2021/01/03 03:38:46;;;;;;;22.07;15.67;;;4.60;99.90;;;;;;5039017;28;20189;-71
2021/01/03 03:41:24;;;;;;;22.63;15.10;;;4.50;99.90;;;;;;5044191;28;20173;-72
2021/01/03 03:43:50;;;;;;;23.07;15.40;;;4.60;99.90;;;;;;5037267;28;20707;-72
2021/01/03 03:46:16;;;;;;;22.37;15.07;;;4.60;99.90;;;;;;5043496;28;20470;-71
2021/01/03 03:48:41;;;;;;;23.20;15.60;;;4.60;99.90;;;;;;5042585;28;20952;-71
2021/01/03 03:51:07;;;;;;;19.87;14.23;;;4.60;99.90;;;;;;5054198;28;20202;-72
2021/01/03 03:53:32;;;;;;;21.70;14.83;;;4.60;99.90;;;;;;5055517;28;20188;-72
2021/01/03 03:55:58;;;;;;;25.53;17.30;;;4.60;99.90;;;;;;5038604;28;20189;-72
2021/01/03 03:58:23;;;;;;;22.80;15.50;;;4.60;99.90;;;;;;5047552;28;20197;-71
2021/01/03 04:00:49;;;;;;;22.73;17.43;;;4.60;99.90;;;;;;5048675;28;20632;-71
2021/01/03 04:03:18;;;;;;;20.27;15.03;;;4.60;99.90;;;;;;5046824;28;20247;-72
2021/01/03 04:05:45;;;;;;;24.30;16.80;;;4.60;99.90;;;;;;5049398;28;20187;-71
2021/01/03 04:08:11;;;;;;;21.30;15.00;;;4.60;99.90;;;;;;5057189;28;20458;-71
2021/01/03 04:10:40;;;;;;;19.80;13.67;;;4.60;99.90;;;;;;5054389;28;20764;-71
2021/01/03 04:13:09;;;;;;;20.87;14.23;;;4.60;99.90;;;;;;5044492;28;20429;-71
2021/01/03 04:15:34;;;;;;;24.57;14.53;;;4.50;99.90;;;;;;5043419;28;20489;-72
2021/01/03 04:18:00;;;;;;;20.53;14.43;;;4.60;99.90;;;;;;5035774;28;20468;-71
2021/01/03 04:20:26;;;;;;;24.10;15.73;;;4.60;99.90;;;;;;5044721;28;20197;-72
2021/01/03 04:22:51;;;;;;;18.80;13.87;;;4.60;99.90;;;;;;5050103;28;20182;-72
2021/01/03 04:25:17;;;;;;;22.10;15.10;;;4.60;99.90;;;;;;5042639;28;20180;-71
2021/01/03 04:27:44;;;;;;;20.37;15.03;;;4.70;99.90;;;;;;5054118;28;20192;-72
2021/01/03 04:30:11;;;;;;;20.13;14.93;;;4.70;99.90;;;;;;5047842;28;20480;-71
2021/01/03 04:32:37;;;;;;;21.20;13.90;;;4.70;99.90;;;;;;5051174;28;20447;-71
2021/01/03 04:35:05;;;;;;;20.90;14.50;;;4.70;99.90;;;;;;5049030;28;20442;-71
2021/01/03 04:37:30;;;;;;;17.40;13.73;;;4.70;99.90;;;;;;5052015;28;20218;-72
2021/01/03 04:39:56;;;;;;;17.97;14.07;;;4.70;99.90;;;;;;5045942;28;20419;-72
2021/01/03 04:42:27;;;;;;;19.03;13.80;;;4.70;99.90;;;;;;5047327;28;20187;-71
2021/01/03 04:44:57;;;;;;;19.60;13.37;;;4.60;99.90;;;;;;5042995;28;20183;-71
2021/01/03 04:47:27;;;;;;;19.50;13.30;;;4.70;99.90;;;;;;5036482;28;20507;-71
2021/01/03 04:50:13;;;;;;;18.00;13.03;;;4.70;99.90;;;;;;5046139;28;20982;-72
2021/01/03 04:53:12;;;;;;;18.20;13.40;;;4.70;99.90;;;;;;5045464;28;20939;-72
2021/01/03 04:55:47;;;;;;;20.77;13.03;;;4.70;99.90;;;;;;5051636;28;20458;-72
2021/01/03 04:58:15;;;;;;;18.40;13.30;;;4.70;99.90;;;;;;5048845;28;20951;-72
2021/01/03 05:01:12;;;;;;;18.20;13.60;;;4.70;99.90;;;;;;5042788;28;20419;-72
2021/01/03 05:04:23;;;;;;;17.03;12.80;;;4.70;99.90;;;;;;5037283;28;20423;-71
2021/01/03 05:06:52;;;;;;;18.50;13.17;;;4.70;99.90;;;;;;5013719;28;20934;-71
2021/01/03 05:09:18;;;;;;;18.80;13.27;;;4.70;99.90;;;;;;5018317;28;20432;-71
2021/01/03 05:12:02;;;;;;;20.63;13.70;;;4.50;99.90;;;;;;5012574;28;20530;-71
2021/01/03 05:14:42;;;;;;;17.70;13.00;;;4.40;99.90;;;;;;5020878;28;20204;-71
2021/01/03 05:17:08;;;;;;;18.40;13.17;;;4.40;99.90;;;;;;5020323;28;20459;-71
2021/01/03 05:19:33;;;;;;;17.93;12.30;;;4.40;99.90;;;;;;5027577;28;20545;-71
2021/01/03 05:21:59;;;;;;;19.80;13.10;;;4.40;99.90;;;;;;5024140;28;20184;-71
2021/01/03 05:24:28;;;;;;;21.67;14.57;;;4.50;99.90;;;;;;5025875;28;20202;-71
2021/01/03 05:26:54;;;;;;;17.63;12.50;;;4.50;99.90;;;;;;5013628;28;20298;-72
2021/01/03 05:29:26;;;;;;;17.53;13.07;;;4.50;99.90;;;;;;5024047;28;20488;-72
2021/01/03 05:32:00;;;;;;;21.27;13.90;;;4.50;99.90;;;;;;5031452;28;20450;-72
2021/01/03 05:34:32;;;;;;;16.10;13.97;;;4.60;99.90;;;;;;5025542;28;20472;-71
2021/01/03 05:37:08;;;;;;;18.63;12.93;;;4.70;99.90;;;;;;5029228;28;20558;-72
2021/01/03 05:39:35;;;;;;;19.20;12.50;;;4.70;99.90;;;;;;5025093;28;20459;-72
2021/01/03 05:42:26;;;;;;;16.50;12.50;;;4.60;99.90;;;;;;5021268;28;20423;-72
2021/01/03 05:45:08;;;;;;;19.47;13.70;;;4.60;99.90;;;;;;5011305;28;20790;-72
2021/01/03 05:47:38;;;;;;;17.50;13.50;;;4.70;99.90;;;;;;5012025;28;20429;-71
2021/01/03 05:50:11;;;;;;;19.20;13.20;;;4.70;99.90;;;;;;4995189;28;20459;-71
2021/01/03 05:52:51;;;;;;;15.00;11.77;;;4.70;99.90;;;;;;5011736;28;20442;-71
2021/01/03 05:55:25;;;;;;;18.93;12.93;;;4.70;99.90;;;;;;5003713;28;20843;-72
2021/01/03 05:58:16;;;;;;;20.80;12.83;;;4.70;99.90;;;;;;5011588;28;20466;-72
2021/01/03 06:00:41;;;;;;;19.97;13.43;;;4.70;99.90;;;;;;5006891;28;20435;-71
2021/01/03 06:03:15;;;;;;;17.10;13.10;;;4.60;99.90;;;;;;5011279;28;20442;-72
2021/01/03 06:05:46;;;;;;;19.53;13.77;;;4.60;99.90;;;;;;5011096;28;20257;-72
2021/01/03 06:08:26;;;;;;;19.30;14.70;;;4.60;99.90;;;;;;5011506;28;20441;-72
2021/01/03 06:10:52;;;;;;;18.70;13.30;;;4.50;99.90;;;;;;5011902;28;20446;-71
2021/01/03 06:13:24;;;;;;;19.63;13.50;;;4.40;99.90;;;;;;5010923;28;20432;-73
2021/01/03 06:16:00;;;;;;;18.60;12.77;;;4.50;99.90;;;;;;5011393;28;20447;-72
2021/01/03 06:18:49;;;;;;;17.97;13.17;;;4.40;99.90;;;;;;5003776;28;20463;-71
2021/01/03 06:21:31;;;;;;;20.87;13.80;;;4.30;99.90;;;;;;5020537;28;20460;-71
2021/01/03 06:24:05;;;;;;;19.43;13.60;;;4.40;99.90;;;;;;5053048;28;20496;-71
2021/01/03 06:26:44;;;;;;;21.17;13.13;;;4.40;99.90;;;;;;5040688;28;20441;-72
2021/01/03 06:29:36;;;;;;;17.73;13.50;;;4.40;99.90;;;;;;5034586;28;20430;-72
2021/01/03 06:32:46;;;;;;;19.53;13.53;;;4.40;99.90;;;;;;5045085;28;20417;-72
2021/01/03 06:35:27;;;;;;;18.27;14.47;;;4.40;99.90;;;;;;5031080;28;20445;-71
2021/01/03 06:38:22;;;;;;;18.67;11.83;;;4.40;99.90;;;;;;5032558;28;20489;-71
2021/01/03 06:41:02;;;;;;;19.70;12.17;;;4.50;99.90;;;;;;5039184;28;20406;-71
2021/01/03 06:44:05;;;;;;;17.40;12.67;;;4.60;99.90;;;;;;5044402;28;20432;-71
2021/01/03 06:47:01;;;;;;;16.10;12.30;;;4.60;99.90;;;;;;5044992;28;20497;-71
2021/01/03 06:49:55;;;;;;;17.50;12.17;;;4.60;99.90;;;;;;5035466;28;20455;-72
2021/01/03 06:52:42;;;;;;;19.13;12.20;;;4.60;99.90;;;;;;5048817;28;20513;-72
2021/01/03 06:55:17;;;;;;;15.10;11.37;;;4.60;99.90;;;;;;5047907;28;20499;-71
2021/01/03 06:58:19;;;;;;;16.20;11.17;;;4.60;99.90;;;;;;5040482;28;20945;-71
2021/01/03 07:00:58;;;;;;;14.83;10.03;;;4.60;99.90;;;;;;5040995;28;20494;-71
2021/01/03 07:03:27;;;;;;;15.17;9.90;;;4.70;99.90;;;;;;5042497;28;20447;-71
2021/01/03 07:06:06;;;;;;;13.20;10.43;;;4.70;99.90;;;;;;5046504;28;20466;-71
2021/01/03 07:08:40;;;;;;;15.07;10.40;;;4.80;99.90;;;;;;5050702;28;20446;-72
2021/01/03 07:11:45;;;;;;;12.47;9.90;;;4.70;99.90;;;;;;5052234;28;20426;-72
2021/01/03 07:14:23;;;;;;;14.20;10.27;;;4.70;99.90;;;;;;5041128;28;20910;-72
2021/01/03 07:16:52;;;;;;;10.87;8.60;;;4.70;99.90;;;;;;5041126;28;20435;-72
2021/01/03 07:19:31;;;;;;;11.50;9.23;;;4.70;99.90;;;;;;5048350;28;20462;-72
2021/01/03 07:22:04;;;;;;;10.57;9.27;;;4.60;99.90;;;;;;5039023;28;20811;-71
2021/01/03 07:24:38;;;;;;;12.03;8.80;;;4.60;99.90;;;;;;5043242;28;20869;-71
2021/01/03 07:27:29;;;;;;;11.57;8.97;;;4.60;99.90;;;;;;5035227;28;20495;-71
2021/01/03 07:29:54;;;;;;;11.90;8.53;;;4.60;99.90;;;;;;5044642;28;20510;-72
2021/01/03 07:32:41;;;;;;;12.10;7.87;;;4.50;99.90;;;;;;5036774;28;21025;-72
2021/01/03 07:35:27;;;;;;;10.17;7.50;;;4.60;99.90;;;;;;5006673;28;20203;-72
2021/01/03 07:38:14;;;;;;;10.37;8.30;;;4.50;99.90;;;;;;5045654;28;20587;-72
2021/01/03 07:40:50;;;;;;;9.03;7.63;;;4.50;99.90;;;;;;5043716;28;20432;-72
2021/01/03 07:43:15;;;;;;;9.33;8.17;;;4.50;99.90;;;;;;5045193;28;20938;-72
2021/01/03 07:45:46;;;;;;;10.73;8.63;;;4.40;99.90;;;;;;5054719;28;20533;-71
2021/01/03 07:48:40;;;;;;;9.67;8.40;;;4.50;99.90;;;;;;5049716;28;20207;-71
2021/01/03 07:51:09;;;;;;;11.27;8.63;;;4.50;99.90;;;;;;5048965;28;20524;-71
2021/01/03 07:53:38;;;;;;;10.53;8.10;;;4.50;99.90;;;;;;5054380;28;20432;-71
2021/01/03 07:56:21;;;;;;;8.57;7.57;;;4.50;99.90;;;;;;5055039;28;20445;-71
2021/01/03 07:58:54;;;;;;;12.37;9.57;;;4.50;99.90;;;;;;5052797;28;20495;-72
2021/01/03 08:01:23;;;;;;;11.20;8.70;;;4.50;99.90;;;;;;5043227;28;20503;-71
2021/01/03 08:03:48;;;;;;;10.17;8.30;;;4.50;99.90;;;;;;5035636;28;20421;-71
2021/01/03 08:06:14;;;;;;;10.03;8.50;;;4.50;99.90;;;;;;5035923;28;20780;-71
2021/01/03 08:08:40;;;;;;;11.80;8.80;;;4.50;99.90;;;;;;5051284;28;20536;-71
2021/01/03 08:11:28;;;;;;;13.50;11.50;;;4.50;99.90;;;;;;5042178;28;20589;-71
2021/01/03 08:14:01;;;;;;;9.80;7.80;;;4.50;99.90;;;;;;5044262;28;20431;-71
2021/01/03 08:16:29;;;;;;;13.43;8.90;;;4.60;99.90;;;;;;5042291;28;20487;-72
2021/01/03 08:19:04;;;;;;;11.10;8.20;;;4.50;99.90;;;;;;5046673;28;20579;-72
2021/01/03 08:21:31;;;;;;;10.17;8.70;;;4.60;99.90;;;;;;5047726;28;20421;-72
2021/01/03 08:24:13;;;;;;;11.00;9.07;;;4.50;99.90;;;;;;5036485;28;20427;-71
2021/01/03 08:26:51;;;;;;;10.63;8.80;;;4.50;99.90;;;;;;5054371;28;20448;-72
2021/01/03 08:29:37;;;;;;;14.53;8.80;;;4.60;99.90;;;;;;5042749;28;20427;-71
2021/01/03 08:32:10;;;;;;;12.00;9.63;;;4.60;99.90;;;;;;5034868;28;20440;-72
2021/01/03 08:34:39;;;;;;;12.20;9.50;;;4.70;99.90;;;;;;5048819;28;20439;-71
2021/01/03 08:37:16;;;;;;;10.83;8.60;;;4.70;99.90;;;;;;5054627;28;20516;-71
2021/01/03 08:39:42;;;;;;;11.80;8.90;;;4.50;99.90;;;;;;5054407;28;20465;-72
2021/01/03 08:42:14;;;;;;;10.80;8.70;;;4.50;99.90;;;;;;5053679;28;20453;-72
2021/01/03 08:44:48;;;;;;;9.67;8.13;;;4.50;99.90;;;;;;5047051;28;20489;-71
2021/01/03 08:47:20;;;;;;;11.07;9.27;;;4.60;99.90;;;;;;5046922;28;20951;-71
2021/01/03 08:49:46;;;;;;;9.73;8.47;;;4.60;99.90;;;;;;5037943;28;20894;-72
2021/01/03 08:52:23;;;;;;;12.80;9.10;;;4.60;99.90;;;;;;5046427;28;20456;-71
2021/01/03 08:54:50;;;;;;;9.37;8.43;;;4.50;99.90;;;;;;5045781;28;20619;-71
2021/01/03 08:57:18;;;;;;;11.53;9.70;;;4.50;99.90;;;;;;5038738;28;20758;-71
2021/01/03 08:59:44;;;;;;;12.33;9.40;;;4.60;99.90;;;;;;5053994;28;20476;-71
2021/01/03 09:02:23;;;;;;;12.63;8.70;;;4.60;99.90;;;;;;5035005;28;20437;-72
2021/01/03 09:04:50;;;;;;;12.97;9.90;;;4.70;99.90;;;;;;5050113;28;20789;-71
2021/01/03 09:07:15;;;;;;;11.30;9.67;;;4.70;99.90;;;;;;5053474;28;20454;-72
2021/01/03 09:09:49;;;;;;;10.50;8.80;;;4.70;99.90;;;;;;5039426;28;20920;-72
2021/01/03 09:12:31;;;;;;;11.57;9.07;;;4.80;99.90;;;;;;5052580;28;20422;-71
2021/01/03 09:14:58;;;;;;;11.77;8.50;;;4.70;99.90;;;;;;5053692;28;20432;-72
2021/01/03 09:17:30;;;;;;;11.40;8.73;;;4.80;99.90;;;;;;5053421;28;20791;-71
2021/01/03 09:19:58;;;;;;;11.77;8.80;;;4.70;99.90;;;;;;5045930;28;20463;-72
2021/01/03 09:22:39;;;;;;;11.50;9.63;;;4.80;99.90;;;;;;5038584;28;20417;-72
2021/01/03 09:25:15;;;;;;;10.27;8.97;;;4.70;99.90;;;;;;5053439;28;20384;-72
2021/01/03 09:27:41;;;;;;;11.33;9.27;;;4.60;99.90;;;;;;5053626;28;20435;-72
2021/01/03 09:30:10;;;;;;;11.40;9.17;;;4.60;99.90;;;;;;5036772;28;20431;-73
2021/01/03 09:32:37;;;;;;;11.30;9.03;;;4.60;99.90;;;;;;5040755;28;20946;-72
2021/01/03 09:35:11;;;;;;;10.87;8.90;;;4.60;99.90;;;;;;5041805;28;20609;-72
2021/01/03 09:37:40;;;;;;;10.03;8.90;;;4.60;99.90;;;;;;5040797;28;20769;-72
2021/01/03 09:40:11;;;;;;;9.97;8.97;;;4.50;99.90;;;;;;5050158;28;20763;-73
2021/01/03 09:42:43;;;;;;;10.53;8.77;;;4.60;99.90;;;;;;5052795;28;20506;-72
2021/01/03 09:45:43;;;;;;;10.23;8.47;;;4.60;99.90;;;;;;5044459;28;20515;-71
2021/01/03 09:48:28;;;;;;;8.83;7.93;;;4.50;99.90;;;;;;5050095;28;20534;-72
2021/01/03 09:51:09;;;;;;;9.50;8.50;;;4.60;99.90;;;;;;5048807;28;20563;-72
2021/01/03 09:53:39;;;;;;;8.80;7.90;;;4.70;99.90;;;;;;5044310;28;20423;-72
2021/01/03 09:56:15;;;;;;;9.63;8.40;;;4.70;99.90;;;;;;5037848;28;20494;-72
2021/01/03 09:58:45;;;;;;;8.50;7.70;;;4.70;99.80;;;;;;5036890;28;20470;-72
2021/01/03 10:01:27;;;;;;;10.20;8.60;;;4.80;99.90;;;;;;5052001;28;20447;-72
2021/01/03 10:03:54;;;;;;;9.50;7.70;;;4.80;99.90;;;;;;5040696;28;20462;-72
2021/01/03 10:06:28;;;;;;;9.33;8.20;;;4.80;99.50;;;;;;5050525;28;20568;-72
2021/01/03 10:09:17;;;;;;;8.27;7.40;;;4.80;99.70;;;;;;5039792;28;20923;-71
2021/01/03 10:11:44;;;;;;;7.97;7.13;;;4.90;99.90;;;;;;5037166;28;20423;-73
2021/01/03 10:14:26;;;;;;;8.20;7.40;;;4.90;99.60;;;;;;5051636;28;20420;-72
2021/01/03 10:16:51;;;;;;;9.27;8.40;;;4.90;99.60;;;;;;5046437;28;20543;-72
2021/01/03 10:19:20;;;;;;;9.47;7.27;;;4.90;99.60;;;;;;5052744;28;20546;-72
2021/01/03 10:21:47;;;;;;;9.10;8.17;;;5.00;99.80;;;;;;5042599;28;20553;-73
2021/01/03 10:24:17;;;;;;;8.20;7.07;;;5.10;99.70;;;;;;5040927;28;20920;-72
2021/01/03 10:26:46;;;;;;;9.00;7.80;;;5.10;99.70;;;;;;5040194;28;20483;-72
2021/01/03 10:29:13;;;;;;;7.47;6.60;;;5.20;99.60;;;;;;5048215;28;20451;-73
2021/01/03 10:31:40;;;;;;;8.70;7.80;;;5.10;99.00;;;;;;5042711;28;20429;-73
2021/01/03 10:34:06;;;;;;;9.67;8.13;;;4.90;99.20;;;;;;5041286;28;20531;-73
2021/01/03 10:36:31;;;;;;;7.97;7.23;;;4.80;99.50;;;;;;5033168;28;20541;-72
2021/01/03 10:38:57;;;;;;;10.13;7.37;;;4.70;99.50;;;;;;5052633;28;20721;-72
2021/01/03 10:41:30;;;;;;;9.43;7.50;;;4.80;99.60;;;;;;5036447;28;20184;-72
2021/01/03 10:43:56;;;;;;;8.50;7.70;;;4.80;99.70;;;;;;5041333;28;20179;-72
2021/01/03 10:46:21;;;;;;;8.97;8.07;;;4.90;99.80;;;;;;5040896;28;20440;-72
2021/01/03 10:48:47;;;;;;;8.10;7.30;;;4.90;99.70;;;;;;5044553;28;20535;-72
2021/01/03 10:51:12;;;;;;;8.80;7.37;;;4.90;99.60;;;;;;5051151;28;20185;-70
2021/01/03 10:53:38;;;;;;;8.47;7.00;;;4.90;99.70;;;;;;5051682;28;20185;-72
2021/01/03 10:56:04;;;;;;;8.33;7.53;;;4.90;99.50;;;;;;5038170;28;20216;-72
2021/01/03 10:58:30;;;;;;;7.60;6.90;;;5.00;99.40;;;;;;5044164;28;20594;-72
2021/01/03 11:00:55;;;;;;;8.07;7.27;;;5.00;99.70;;;;;;5056059;28;20425;-72
2021/01/03 11:03:21;;;;;;;8.63;6.33;;;5.10;99.80;;;;;;5041778;28;20255;-73
2021/01/03 11:05:46;;;;;;;7.57;6.77;;;5.20;99.70;;;;;;5054824;28;20205;-72
2021/01/03 11:08:12;;;;;;;8.40;7.50;;;5.20;99.60;;;;;;5045535;28;20194;-72
2021/01/03 11:10:37;;;;;;;8.17;7.00;;;5.10;99.70;;;;;;5049639;28;20192;-72
2021/01/03 11:13:03;;;;;;;7.20;6.30;;;5.00;99.90;;;;;;5050453;28;20199;-72
2021/01/03 11:15:28;;;;;;;7.60;6.67;;;4.90;99.90;;;;;;5058959;28;20213;-72
2021/01/03 11:17:54;;;;;;;8.77;7.20;;;4.90;99.90;;;;;;5060376;28;20206;-72
2021/01/03 11:20:21;;;;;;;7.63;6.20;;;4.90;99.90;;;;;;5038195;28;20675;-72
2021/01/03 11:22:46;;;;;;;7.40;6.60;;;5.00;99.90;;;;;;5037210;28;20618;-73
2021/01/03 11:25:13;;;;;;;6.33;5.73;;;4.90;99.90;;;;;;5039698;28;20422;-72
2021/01/03 11:27:38;;;;;;;7.70;6.90;;;4.80;99.90;;;;;;5056242;28;20694;-72
2021/01/03 11:30:06;;;;;;;9.17;7.00;;;4.80;99.90;;;;;;5055555;28;20428;-72
2021/01/03 11:32:31;;;;;;;6.90;6.20;;;4.80;99.90;;;;;;5056162;28;20617;-72
2021/01/03 11:34:57;;;;;;;8.07;6.80;;;4.90;99.90;;;;;;5045663;28;20478;-72
2021/01/03 11:37:25;;;;;;;7.40;6.60;;;5.00;99.90;;;;;;5043397;28;20300;-72
2021/01/03 11:39:51;;;;;;;7.83;6.63;;;5.00;99.90;;;;;;5044336;28;20208;-72
2021/01/03 11:42:24;;;;;;;7.87;6.37;;;4.90;99.90;;;;;;5044214;28;20421;-73
2021/01/03 11:44:49;;;;;;;7.60;6.43;;;5.00;99.90;;;;;;5036332;28;20915;-72
2021/01/03 11:47:16;;;;;;;5.57;5.07;;;4.80;99.90;;;;;;5043400;28;20447;-72
2021/01/03 11:49:42;;;;;;;7.30;5.63;;;4.90;99.90;;;;;;5035876;28;20173;-72
2021/01/03 11:52:08;;;;;;;6.83;5.70;;;4.90;99.90;;;;;;5047285;28;20431;-73
2021/01/03 11:54:35;;;;;;;6.43;5.83;;;4.90;99.90;;;;;;5041035;28;20469;-72
2021/01/03 11:57:01;;;;;;;6.90;6.00;;;4.80;99.90;;;;;;5044871;28;20324;-73
2021/01/03 11:59:27;;;;;;;6.80;6.00;;;4.80;99.90;;;;;;5054664;28;21020;-72
2021/01/03 12:01:57;;;;;;;6.67;5.37;;;4.80;99.90;;;;;;5054683;28;20435;-70
2021/01/03 12:04:24;;;;;;;7.03;5.70;;;4.80;99.90;;;;;;5055317;28;20922;-72
2021/01/03 12:06:57;;;;;;;6.67;5.70;;;4.80;99.90;;;;;;5039408;28;20964;-72
2021/01/03 12:09:24;;;;;;;6.77;6.10;;;4.80;99.90;;;;;;5046192;28;20447;-71
2021/01/03 12:11:53;;;;;;;10.47;5.60;;;4.90;99.90;;;;;;5039417;28;20432;-71
2021/01/03 12:14:19;;;;;;;5.87;5.20;;;5.00;99.90;;;;;;5051437;28;20440;-71
2021/01/03 12:16:44;;;;;;;7.03;5.73;;;5.00;99.90;;;;;;5035454;28;20445;-71
2021/01/03 12:19:10;;;;;;;5.00;4.43;;;4.80;99.90;;;;;;5053006;28;20463;-71
2021/01/03 12:21:37;;;;;;;5.77;5.10;;;4.80;99.90;;;;;;5055062;28;20269;-71
2021/01/03 12:24:02;;;;;;;8.70;6.37;;;4.70;99.90;;;;;;5046010;28;20175;-71
2021/01/03 12:26:40;;;;;;;6.20;5.30;;;4.80;99.90;;;;;;5035418;28;20863;-71
2021/01/03 12:29:06;;;;;;;5.90;5.30;;;4.80;99.90;;;;;;5035751;28;20261;-71
2021/01/03 12:31:37;;;;;;;5.87;5.30;;;4.80;99.90;;;;;;5035448;28;20516;-71
2021/01/03 12:34:04;;;;;;;5.77;5.27;;;4.90;99.90;;;;;;5035273;28;20457;-71
2021/01/03 12:36:30;;;;;;;5.37;4.87;;;5.00;99.90;;;;;;5035152;28;20808;-71
2021/01/03 12:38:56;;;;;;;6.27;5.70;;;4.80;99.90;;;;;;5043007;28;20481;-71
2021/01/03 12:41:23;;;;;;;5.40;4.70;;;4.80;99.90;;;;;;5045885;28;20485;-71
2021/01/03 12:43:49;;;;;;;7.33;5.87;;;4.80;99.90;;;;;;5049125;28;20686;-71
2021/01/03 12:46:24;;;;;;;6.00;5.00;;;4.80;99.90;;;;;;5052665;28;20468;-71
2021/01/03 12:48:50;;;;;;;6.40;5.60;;;4.90;99.90;;;;;;5048260;28;20510;-71
2021/01/03 12:51:15;;;;;;;6.10;5.47;;;5.00;99.90;;;;;;5051294;28;20514;-71
2021/01/03 12:53:41;;;;;;;6.70;5.70;;;5.00;99.90;;;;;;5038484;28;20163;-71
2021/01/03 12:56:06;;;;;;;7.27;5.60;;;5.10;99.90;;;;;;5038347;28;20360;-71
2021/01/03 12:58:32;;;;;;;8.07;5.57;;;5.00;99.90;;;;;;5042896;28;20310;-71
2021/01/03 13:00:57;;;;;;;6.70;5.53;;;5.00;99.90;;;;;;5040129;28;20173;-71
2021/01/03 13:03:23;;;;;;;6.87;5.80;;;5.10;99.90;;;;;;5045267;28;20180;-71